sensor_id;sensor_type;location;lat;lon;timestamp;P1;durP1;ratioP1;P2;durP2;ratioP2
19251;SDS011;9760;50.944;5.304;2022-10-22T00:00:30;13.13;;;4.30;;
19251;SDS011;9760;50.944;5.304;2022-10-22T00:02:55;12.77;;;4.27;;
19251;SDS011;9760;50.944;5.304;2022-10-22T00:05:21;13.57;;;4.70;;
19251;SDS011;9760;50.944;5.304;2022-10-22T00:07:48;15.13;;;5.03;;
19251;SDS011;9760;50.944;5.304;2022-10-22T00:10:13;12.30;;;4.80;;
19251;SDS011;9760;50.944;5.304;2022-10-22T00:12:41;13.57;;;4.47;;
19251;SDS011;9760;50.944;5.304;2022-10-22T00:15:07;10.53;;;4.37;;
19251;SDS011;9760;50.944;5.304;2022-10-22T00:17:33;18.77;;;5.37;;
19251;SDS011;9760;50.944;5.304;2022-10-22T00:19:58;11.13;;;4.73;;
19251;SDS011;9760;50.944;5.304;2022-10-22T00:22:24;20.00;;;5.37;;
19251;SDS011;9760;50.944;5.304;2022-10-22T00:24:49;17.17;;;4.70;;
19251;SDS011;9760;50.944;5.304;2022-10-22T00:27:15;10.97;;;4.40;;
19251;SDS011;9760;50.944;5.304;2022-10-22T00:29:40;17.43;;;5.20;;
19251;SDS011;9760;50.944;5.304;2022-10-22T00:32:06;19.87;;;5.00;;
19251;SDS011;9760;50.944;5.304;2022-10-22T00:34:32;9.87;;;4.73;;
19251;SDS011;9760;50.944;5.304;2022-10-22T00:36:57;14.60;;;5.40;;
19251;SDS011;9760;50.944;5.304;2022-10-22T00:39:24;20.17;;;5.43;;
19251;SDS011;9760;50.944;5.304;2022-10-22T00:41:51;14.30;;;4.90;;
19251;SDS011;9760;50.944;5.304;2022-10-22T00:47:21;18.47;;;4.90;;
19251;SDS011;9760;50.944;5.304;2022-10-22T00:49:49;13.67;;;5.33;;
19251;SDS011;9760;50.944;5.304;2022-10-22T00:52:17;20.20;;;5.67;;
19251;SDS011;9760;50.944;5.304;2022-10-22T00:54:43;12.40;;;4.97;;
19251;SDS011;9760;50.944;5.304;2022-10-22T00:57:09;16.87;;;5.47;;
19251;SDS011;9760;50.944;5.304;2022-10-22T00:59:35;19.40;;;5.47;;
19251;SDS011;9760;50.944;5.304;2022-10-22T01:02:01;20.93;;;4.90;;
19251;SDS011;9760;50.944;5.304;2022-10-22T01:04:27;20.07;;;5.80;;
19251;SDS011;9760;50.944;5.304;2022-10-22T01:06:53;23.20;;;5.07;;
19251;SDS011;9760;50.944;5.304;2022-10-22T01:09:26;18.70;;;5.40;;
19251;SDS011;9760;50.944;5.304;2022-10-22T01:20:09;11.80;;;4.47;;
19251;SDS011;9760;50.944;5.304;2022-10-22T01:22:48;19.93;;;4.43;;
19251;SDS011;9760;50.944;5.304;2022-10-22T01:25:42;15.43;;;4.70;;
19251;SDS011;9760;50.944;5.304;2022-10-22T01:30:45;14.17;;;4.60;;
19251;SDS011;9760;50.944;5.304;2022-10-22T01:33:14;12.37;;;4.50;;
19251;SDS011;9760;50.944;5.304;2022-10-22T01:35:43;12.43;;;4.67;;
19251;SDS011;9760;50.944;5.304;2022-10-22T01:38:10;15.97;;;4.20;;
19251;SDS011;9760;50.944;5.304;2022-10-22T01:40:39;17.20;;;4.53;;
19251;SDS011;9760;50.944;5.304;2022-10-22T01:43:06;24.03;;;5.03;;
19251;SDS011;9760;50.944;5.304;2022-10-22T01:45:38;18.20;;;4.77;;
19251;SDS011;9760;50.944;5.304;2022-10-22T01:59:16;10.90;;;4.10;;
19251;SDS011;9760;50.944;5.304;2022-10-22T02:01:55;11.53;;;4.67;;
19251;SDS011;9760;50.944;5.304;2022-10-22T02:07:00;21.93;;;5.07;;
19251;SDS011;9760;50.944;5.304;2022-10-22T02:09:30;14.47;;;4.90;;
19251;SDS011;9760;50.944;5.304;2022-10-22T02:11:57;20.33;;;4.57;;
19251;SDS011;9760;50.944;5.304;2022-10-22T02:14:23;13.07;;;4.60;;
19251;SDS011;9760;50.944;5.304;2022-10-22T02:16:53;10.23;;;4.30;;
19251;SDS011;9760;50.944;5.304;2022-10-22T02:19:24;14.57;;;4.97;;
19251;SDS011;9760;50.944;5.304;2022-10-22T02:21:52;13.67;;;4.33;;
19251;SDS011;9760;50.944;5.304;2022-10-22T02:24:18;13.13;;;4.87;;
19251;SDS011;9760;50.944;5.304;2022-10-22T02:29:29;14.60;;;4.80;;
19251;SDS011;9760;50.944;5.304;2022-10-22T02:32:03;15.00;;;4.00;;
19251;SDS011;9760;50.944;5.304;2022-10-22T02:34:31;16.07;;;4.27;;
19251;SDS011;9760;50.944;5.304;2022-10-22T02:36:57;19.13;;;4.93;;
19251;SDS011;9760;50.944;5.304;2022-10-22T02:39:25;22.27;;;4.90;;
19251;SDS011;9760;50.944;5.304;2022-10-22T02:41:51;10.43;;;4.13;;
19251;SDS011;9760;50.944;5.304;2022-10-22T02:44:19;13.50;;;4.23;;
19251;SDS011;9760;50.944;5.304;2022-10-22T02:46:46;9.93;;;3.97;;
19251;SDS011;9760;50.944;5.304;2022-10-22T02:49:12;12.30;;;4.17;;
19251;SDS011;9760;50.944;5.304;2022-10-22T02:51:37;17.80;;;4.40;;
19251;SDS011;9760;50.944;5.304;2022-10-22T02:54:03;11.33;;;4.67;;
19251;SDS011;9760;50.944;5.304;2022-10-22T02:56:29;18.20;;;4.33;;
19251;SDS011;9760;50.944;5.304;2022-10-22T02:58:58;9.07;;;3.93;;
19251;SDS011;9760;50.944;5.304;2022-10-22T03:01:24;21.40;;;4.20;;
19251;SDS011;9760;50.944;5.304;2022-10-22T03:03:49;14.00;;;4.77;;
19251;SDS011;9760;50.944;5.304;2022-10-22T03:06:15;12.97;;;4.37;;
19251;SDS011;9760;50.944;5.304;2022-10-22T03:08:41;10.37;;;4.17;;
19251;SDS011;9760;50.944;5.304;2022-10-22T03:11:07;14.87;;;4.60;;
19251;SDS011;9760;50.944;5.304;2022-10-22T03:13:32;14.23;;;4.27;;
19251;SDS011;9760;50.944;5.304;2022-10-22T03:15:58;10.67;;;4.20;;
19251;SDS011;9760;50.944;5.304;2022-10-22T03:18:24;15.70;;;4.23;;
19251;SDS011;9760;50.944;5.304;2022-10-22T03:20:49;14.47;;;5.07;;
19251;SDS011;9760;50.944;5.304;2022-10-22T03:23:23;9.87;;;4.17;;
19251;SDS011;9760;50.944;5.304;2022-10-22T03:25:49;15.80;;;4.57;;
19251;SDS011;9760;50.944;5.304;2022-10-22T03:28:15;17.20;;;4.00;;
19251;SDS011;9760;50.944;5.304;2022-10-22T03:30:42;8.43;;;4.17;;
19251;SDS011;9760;50.944;5.304;2022-10-22T03:33:07;14.10;;;4.90;;
19251;SDS011;9760;50.944;5.304;2022-10-22T03:35:34;12.93;;;4.07;;
19251;SDS011;9760;50.944;5.304;2022-10-22T03:38:06;16.93;;;4.10;;
19251;SDS011;9760;50.944;5.304;2022-10-22T03:40:32;12.20;;;3.80;;
19251;SDS011;9760;50.944;5.304;2022-10-22T03:42:57;11.00;;;4.50;;
19251;SDS011;9760;50.944;5.304;2022-10-22T03:45:23;9.33;;;4.20;;
19251;SDS011;9760;50.944;5.304;2022-10-22T03:47:49;11.53;;;4.00;;
19251;SDS011;9760;50.944;5.304;2022-10-22T03:50:14;14.13;;;3.93;;
19251;SDS011;9760;50.944;5.304;2022-10-22T03:52:41;10.43;;;4.00;;
19251;SDS011;9760;50.944;5.304;2022-10-22T03:55:07;10.10;;;4.33;;
19251;SDS011;9760;50.944;5.304;2022-10-22T03:57:33;16.07;;;4.23;;
19251;SDS011;9760;50.944;5.304;2022-10-22T03:59:58;13.80;;;4.43;;
19251;SDS011;9760;50.944;5.304;2022-10-22T04:02:24;10.93;;;4.23;;
19251;SDS011;9760;50.944;5.304;2022-10-22T04:04:50;15.60;;;4.63;;
19251;SDS011;9760;50.944;5.304;2022-10-22T04:07:15;16.80;;;4.40;;
19251;SDS011;9760;50.944;5.304;2022-10-22T04:09:41;11.47;;;3.77;;
19251;SDS011;9760;50.944;5.304;2022-10-22T04:12:07;27.40;;;5.17;;
19251;SDS011;9760;50.944;5.304;2022-10-22T04:14:33;13.60;;;4.23;;
19251;SDS011;9760;50.944;5.304;2022-10-22T04:16:59;14.07;;;3.40;;
19251;SDS011;9760;50.944;5.304;2022-10-22T04:19:25;9.17;;;3.40;;
19251;SDS011;9760;50.944;5.304;2022-10-22T04:21:50;8.03;;;3.30;;
19251;SDS011;9760;50.944;5.304;2022-10-22T04:24:16;18.73;;;3.70;;
19251;SDS011;9760;50.944;5.304;2022-10-22T04:26:42;11.83;;;3.60;;
19251;SDS011;9760;50.944;5.304;2022-10-22T04:29:07;19.50;;;3.70;;
19251;SDS011;9760;50.944;5.304;2022-10-22T04:31:33;19.80;;;3.43;;
19251;SDS011;9760;50.944;5.304;2022-10-22T04:33:59;11.13;;;3.07;;
19251;SDS011;9760;50.944;5.304;2022-10-22T04:36:26;11.43;;;2.73;;
19251;SDS011;9760;50.944;5.304;2022-10-22T04:38:53;15.07;;;3.20;;
19251;SDS011;9760;50.944;5.304;2022-10-22T04:41:22;13.30;;;3.30;;
19251;SDS011;9760;50.944;5.304;2022-10-22T04:43:53;9.33;;;2.13;;
19251;SDS011;9760;50.944;5.304;2022-10-22T04:46:19;12.57;;;3.47;;
19251;SDS011;9760;50.944;5.304;2022-10-22T04:48:45;11.30;;;2.53;;
19251;SDS011;9760;50.944;5.304;2022-10-22T04:51:13;10.07;;;2.70;;
19251;SDS011;9760;50.944;5.304;2022-10-22T04:53:40;6.53;;;2.13;;
19251;SDS011;9760;50.944;5.304;2022-10-22T04:56:09;6.67;;;2.10;;
19251;SDS011;9760;50.944;5.304;2022-10-22T04:58:40;9.67;;;2.33;;
19251;SDS011;9760;50.944;5.304;2022-10-22T05:01:08;12.13;;;2.60;;
19251;SDS011;9760;50.944;5.304;2022-10-22T05:03:38;8.40;;;2.33;;
19251;SDS011;9760;50.944;5.304;2022-10-22T05:06:04;10.27;;;2.43;;
19251;SDS011;9760;50.944;5.304;2022-10-22T05:08:30;15.63;;;2.27;;
19251;SDS011;9760;50.944;5.304;2022-10-22T05:10:55;8.40;;;2.17;;
19251;SDS011;9760;50.944;5.304;2022-10-22T05:13:21;12.73;;;1.90;;
19251;SDS011;9760;50.944;5.304;2022-10-22T05:15:46;11.77;;;1.70;;
19251;SDS011;9760;50.944;5.304;2022-10-22T05:18:12;9.87;;;2.17;;
19251;SDS011;9760;50.944;5.304;2022-10-22T05:20:38;9.03;;;1.97;;
19251;SDS011;9760;50.944;5.304;2022-10-22T05:23:04;9.73;;;2.13;;
19251;SDS011;9760;50.944;5.304;2022-10-22T05:25:30;11.53;;;2.17;;
19251;SDS011;9760;50.944;5.304;2022-10-22T05:27:55;6.23;;;1.73;;
19251;SDS011;9760;50.944;5.304;2022-10-22T05:30:21;6.73;;;1.93;;
19251;SDS011;9760;50.944;5.304;2022-10-22T05:32:47;8.23;;;2.27;;
19251;SDS011;9760;50.944;5.304;2022-10-22T05:35:12;14.10;;;2.30;;
19251;SDS011;9760;50.944;5.304;2022-10-22T05:37:38;9.87;;;1.83;;
19251;SDS011;9760;50.944;5.304;2022-10-22T05:40:04;11.63;;;2.50;;
19251;SDS011;9760;50.944;5.304;2022-10-22T05:42:30;6.53;;;2.10;;
19251;SDS011;9760;50.944;5.304;2022-10-22T05:44:56;15.17;;;2.23;;
19251;SDS011;9760;50.944;5.304;2022-10-22T05:47:22;10.33;;;2.20;;
19251;SDS011;9760;50.944;5.304;2022-10-22T05:49:48;8.47;;;1.87;;
19251;SDS011;9760;50.944;5.304;2022-10-22T05:52:13;14.67;;;2.33;;
19251;SDS011;9760;50.944;5.304;2022-10-22T05:54:39;7.13;;;2.00;;
19251;SDS011;9760;50.944;5.304;2022-10-22T05:57:05;9.13;;;2.17;;
19251;SDS011;9760;50.944;5.304;2022-10-22T05:59:30;12.53;;;2.13;;
19251;SDS011;9760;50.944;5.304;2022-10-22T06:01:56;11.13;;;1.90;;
19251;SDS011;9760;50.944;5.304;2022-10-22T06:04:22;10.77;;;2.37;;
19251;SDS011;9760;50.944;5.304;2022-10-22T06:06:48;8.50;;;2.00;;
19251;SDS011;9760;50.944;5.304;2022-10-22T06:11:49;15.27;;;2.17;;
19251;SDS011;9760;50.944;5.304;2022-10-22T06:14:15;6.47;;;2.30;;
19251;SDS011;9760;50.944;5.304;2022-10-22T06:16:42;14.10;;;2.83;;
19251;SDS011;9760;50.944;5.304;2022-10-22T06:19:08;16.83;;;2.67;;
19251;SDS011;9760;50.944;5.304;2022-10-22T06:21:38;13.03;;;2.30;;
19251;SDS011;9760;50.944;5.304;2022-10-22T06:24:04;12.30;;;1.80;;
19251;SDS011;9760;50.944;5.304;2022-10-22T06:26:30;9.37;;;2.20;;
19251;SDS011;9760;50.944;5.304;2022-10-22T06:28:56;15.20;;;2.07;;
19251;SDS011;9760;50.944;5.304;2022-10-22T06:31:23;10.33;;;1.77;;
19251;SDS011;9760;50.944;5.304;2022-10-22T06:33:50;15.30;;;2.53;;
19251;SDS011;9760;50.944;5.304;2022-10-22T06:36:17;11.07;;;1.50;;
19251;SDS011;9760;50.944;5.304;2022-10-22T06:38:45;8.77;;;1.37;;
19251;SDS011;9760;50.944;5.304;2022-10-22T06:41:14;9.63;;;2.00;;
19251;SDS011;9760;50.944;5.304;2022-10-22T06:43:41;8.47;;;1.67;;
19251;SDS011;9760;50.944;5.304;2022-10-22T06:46:12;11.63;;;2.07;;
19251;SDS011;9760;50.944;5.304;2022-10-22T06:48:39;8.40;;;1.80;;
19251;SDS011;9760;50.944;5.304;2022-10-22T06:51:06;8.40;;;1.33;;
19251;SDS011;9760;50.944;5.304;2022-10-22T06:53:34;11.37;;;2.27;;
19251;SDS011;9760;50.944;5.304;2022-10-22T06:56:04;11.00;;;1.80;;
19251;SDS011;9760;50.944;5.304;2022-10-22T06:58:30;12.70;;;2.13;;
19251;SDS011;9760;50.944;5.304;2022-10-22T07:01:00;17.00;;;2.20;;
19251;SDS011;9760;50.944;5.304;2022-10-22T07:03:30;16.07;;;2.20;;
19251;SDS011;9760;50.944;5.304;2022-10-22T07:06:02;10.10;;;2.07;;
19251;SDS011;9760;50.944;5.304;2022-10-22T07:08:30;9.13;;;2.23;;
19251;SDS011;9760;50.944;5.304;2022-10-22T07:11:03;8.50;;;1.87;;
19251;SDS011;9760;50.944;5.304;2022-10-22T07:13:40;20.53;;;2.23;;
19251;SDS011;9760;50.944;5.304;2022-10-22T07:16:06;10.37;;;1.60;;
19251;SDS011;9760;50.944;5.304;2022-10-22T07:18:33;11.60;;;2.30;;
19251;SDS011;9760;50.944;5.304;2022-10-22T07:20:59;11.20;;;2.27;;
19251;SDS011;9760;50.944;5.304;2022-10-22T07:23:26;12.40;;;1.80;;
19251;SDS011;9760;50.944;5.304;2022-10-22T07:25:52;9.50;;;1.93;;
19251;SDS011;9760;50.944;5.304;2022-10-22T07:28:18;10.97;;;2.83;;
19251;SDS011;9760;50.944;5.304;2022-10-22T07:30:43;12.10;;;2.80;;
19251;SDS011;9760;50.944;5.304;2022-10-22T07:33:09;9.93;;;1.87;;
19251;SDS011;9760;50.944;5.304;2022-10-22T07:35:36;9.83;;;1.90;;
19251;SDS011;9760;50.944;5.304;2022-10-22T07:38:03;10.57;;;1.90;;
19251;SDS011;9760;50.944;5.304;2022-10-22T07:40:30;5.80;;;1.57;;
19251;SDS011;9760;50.944;5.304;2022-10-22T07:42:55;13.40;;;2.57;;
19251;SDS011;9760;50.944;5.304;2022-10-22T07:45:21;12.07;;;2.33;;
19251;SDS011;9760;50.944;5.304;2022-10-22T07:47:47;13.13;;;2.00;;
19251;SDS011;9760;50.944;5.304;2022-10-22T07:50:13;12.63;;;2.30;;
19251;SDS011;9760;50.944;5.304;2022-10-22T07:52:39;13.70;;;2.47;;
19251;SDS011;9760;50.944;5.304;2022-10-22T07:55:05;11.20;;;2.27;;
19251;SDS011;9760;50.944;5.304;2022-10-22T07:57:31;14.33;;;2.17;;
19251;SDS011;9760;50.944;5.304;2022-10-22T07:59:57;8.70;;;1.93;;
19251;SDS011;9760;50.944;5.304;2022-10-22T08:02:24;8.87;;;1.93;;
19251;SDS011;9760;50.944;5.304;2022-10-22T08:04:49;11.30;;;2.27;;
19251;SDS011;9760;50.944;5.304;2022-10-22T08:07:16;6.60;;;1.53;;
19251;SDS011;9760;50.944;5.304;2022-10-22T08:09:42;12.07;;;1.93;;
19251;SDS011;9760;50.944;5.304;2022-10-22T08:12:08;10.03;;;1.80;;
19251;SDS011;9760;50.944;5.304;2022-10-22T08:14:33;12.37;;;2.10;;
19251;SDS011;9760;50.944;5.304;2022-10-22T08:16:59;15.83;;;1.93;;
19251;SDS011;9760;50.944;5.304;2022-10-22T08:19:25;13.40;;;1.87;;
19251;SDS011;9760;50.944;5.304;2022-10-22T08:21:52;12.57;;;2.93;;
19251;SDS011;9760;50.944;5.304;2022-10-22T08:24:18;8.73;;;1.93;;
19251;SDS011;9760;50.944;5.304;2022-10-22T08:26:44;10.73;;;1.97;;
19251;SDS011;9760;50.944;5.304;2022-10-22T08:29:09;9.70;;;1.93;;
19251;SDS011;9760;50.944;5.304;2022-10-22T08:31:35;13.20;;;2.07;;
19251;SDS011;9760;50.944;5.304;2022-10-22T08:34:00;6.83;;;1.43;;
19251;SDS011;9760;50.944;5.304;2022-10-22T08:36:26;10.77;;;2.07;;
19251;SDS011;9760;50.944;5.304;2022-10-22T08:38:52;12.57;;;2.47;;
19251;SDS011;9760;50.944;5.304;2022-10-22T08:41:18;7.90;;;1.70;;
19251;SDS011;9760;50.944;5.304;2022-10-22T08:49:26;6.90;;;1.63;;
19251;SDS011;9760;50.944;5.304;2022-10-22T08:51:57;10.97;;;2.27;;
19251;SDS011;9760;50.944;5.304;2022-10-22T08:54:29;6.43;;;1.60;;
19251;SDS011;9760;50.944;5.304;2022-10-22T08:57:05;13.97;;;1.50;;
19251;SDS011;9760;50.944;5.304;2022-10-22T08:59:47;12.67;;;1.70;;
19251;SDS011;9760;50.944;5.304;2022-10-22T09:05:45;10.60;;;1.70;;
19251;SDS011;9760;50.944;5.304;2022-10-22T09:08:20;10.63;;;1.60;;
19251;SDS011;9760;50.944;5.304;2022-10-22T09:10:47;7.73;;;1.37;;
19251;SDS011;9760;50.944;5.304;2022-10-22T09:13:17;10.23;;;1.33;;
19251;SDS011;9760;50.944;5.304;2022-10-22T09:15:48;4.13;;;1.33;;
19251;SDS011;9760;50.944;5.304;2022-10-22T09:23:52;6.97;;;1.53;;
19251;SDS011;9760;50.944;5.304;2022-10-22T09:26:19;5.67;;;1.50;;
19251;SDS011;9760;50.944;5.304;2022-10-22T09:28:48;13.80;;;1.37;;
19251;SDS011;9760;50.944;5.304;2022-10-22T09:31:14;8.23;;;1.30;;
19251;SDS011;9760;50.944;5.304;2022-10-22T09:33:42;11.23;;;1.47;;
19251;SDS011;9760;50.944;5.304;2022-10-22T09:36:12;5.77;;;1.20;;
19251;SDS011;9760;50.944;5.304;2022-10-22T09:38:46;7.20;;;1.30;;
19251;SDS011;9760;50.944;5.304;2022-10-22T09:41:13;8.13;;;1.93;;
19251;SDS011;9760;50.944;5.304;2022-10-22T09:43:39;8.47;;;1.63;;
19251;SDS011;9760;50.944;5.304;2022-10-22T09:46:06;6.57;;;1.43;;
19251;SDS011;9760;50.944;5.304;2022-10-22T09:48:40;12.37;;;1.80;;
19251;SDS011;9760;50.944;5.304;2022-10-22T09:51:14;8.80;;;2.13;;
19251;SDS011;9760;50.944;5.304;2022-10-22T09:53:46;9.13;;;1.50;;
19251;SDS011;9760;50.944;5.304;2022-10-22T09:56:27;8.63;;;1.53;;
19251;SDS011;9760;50.944;5.304;2022-10-22T09:58:56;7.80;;;1.30;;
19251;SDS011;9760;50.944;5.304;2022-10-22T10:01:30;8.30;;;1.60;;
19251;SDS011;9760;50.944;5.304;2022-10-22T10:04:02;8.03;;;1.83;;
19251;SDS011;9760;50.944;5.304;2022-10-22T10:06:33;6.87;;;1.70;;
19251;SDS011;9760;50.944;5.304;2022-10-22T10:08:59;11.07;;;1.27;;
19251;SDS011;9760;50.944;5.304;2022-10-22T10:11:40;8.47;;;1.43;;
19251;SDS011;9760;50.944;5.304;2022-10-22T10:14:29;9.97;;;1.33;;
19251;SDS011;9760;50.944;5.304;2022-10-22T10:17:02;12.03;;;1.47;;
19251;SDS011;9760;50.944;5.304;2022-10-22T10:25:09;9.33;;;1.43;;
19251;SDS011;9760;50.944;5.304;2022-10-22T10:28:01;6.37;;;1.37;;
19251;SDS011;9760;50.944;5.304;2022-10-22T10:30:48;9.17;;;1.67;;
19251;SDS011;9760;50.944;5.304;2022-10-22T10:33:32;13.17;;;1.77;;
19251;SDS011;9760;50.944;5.304;2022-10-22T10:36:18;10.03;;;1.97;;
19251;SDS011;9760;50.944;5.304;2022-10-22T10:47:07;13.50;;;2.23;;
19251;SDS011;9760;50.944;5.304;2022-10-22T10:49:43;14.63;;;2.00;;
19251;SDS011;9760;50.944;5.304;2022-10-22T11:05:11;9.97;;;1.50;;
19251;SDS011;9760;50.944;5.304;2022-10-22T11:07:44;10.10;;;1.67;;
19251;SDS011;9760;50.944;5.304;2022-10-22T11:13:32;10.33;;;1.40;;
19251;SDS011;9760;50.944;5.304;2022-10-22T11:16:09;7.63;;;1.63;;
19251;SDS011;9760;50.944;5.304;2022-10-22T11:18:38;15.97;;;2.07;;
19251;SDS011;9760;50.944;5.304;2022-10-22T11:21:15;10.90;;;1.47;;
19251;SDS011;9760;50.944;5.304;2022-10-22T11:23:54;9.17;;;2.10;;
19251;SDS011;9760;50.944;5.304;2022-10-22T11:26:49;8.57;;;1.40;;
19251;SDS011;9760;50.944;5.304;2022-10-22T11:29:22;9.40;;;1.83;;
19251;SDS011;9760;50.944;5.304;2022-10-22T11:31:52;7.57;;;2.03;;
19251;SDS011;9760;50.944;5.304;2022-10-22T11:34:27;7.27;;;1.20;;
19251;SDS011;9760;50.944;5.304;2022-10-22T11:36:58;16.07;;;1.87;;
19251;SDS011;9760;50.944;5.304;2022-10-22T11:39:34;10.83;;;1.60;;
19251;SDS011;9760;50.944;5.304;2022-10-22T11:42:17;10.07;;;1.47;;
19251;SDS011;9760;50.944;5.304;2022-10-22T11:44:49;6.73;;;1.67;;
19251;SDS011;9760;50.944;5.304;2022-10-22T11:47:27;10.07;;;1.57;;
19251;SDS011;9760;50.944;5.304;2022-10-22T11:50:19;9.90;;;1.80;;
19251;SDS011;9760;50.944;5.304;2022-10-22T11:52:52;6.43;;;1.13;;
19251;SDS011;9760;50.944;5.304;2022-10-22T12:14:31;9.03;;;1.87;;
19251;SDS011;9760;50.944;5.304;2022-10-22T12:17:04;5.83;;;1.03;;
19251;SDS011;9760;50.944;5.304;2022-10-22T12:19:38;8.07;;;1.77;;
19251;SDS011;9760;50.944;5.304;2022-10-22T12:22:14;7.53;;;1.73;;
19251;SDS011;9760;50.944;5.304;2022-10-22T12:24:44;9.87;;;2.17;;
19251;SDS011;9760;50.944;5.304;2022-10-22T12:27:31;6.50;;;1.40;;
19251;SDS011;9760;50.944;5.304;2022-10-22T12:32:48;10.27;;;1.30;;
19251;SDS011;9760;50.944;5.304;2022-10-22T12:35:18;10.17;;;1.33;;
19251;SDS011;9760;50.944;5.304;2022-10-22T12:37:54;10.30;;;1.60;;
19251;SDS011;9760;50.944;5.304;2022-10-22T12:40:31;6.53;;;1.60;;
19251;SDS011;9760;50.944;5.304;2022-10-22T12:42:59;8.93;;;1.50;;
19251;SDS011;9760;50.944;5.304;2022-10-22T12:45:27;6.67;;;1.63;;
19251;SDS011;9760;50.944;5.304;2022-10-22T12:47:56;5.03;;;1.00;;
19251;SDS011;9760;50.944;5.304;2022-10-22T12:50:28;5.67;;;1.23;;
19251;SDS011;9760;50.944;5.304;2022-10-22T12:53:03;10.83;;;1.50;;
19251;SDS011;9760;50.944;5.304;2022-10-22T12:55:30;6.43;;;1.73;;
19251;SDS011;9760;50.944;5.304;2022-10-22T12:57:57;10.63;;;1.60;;
19251;SDS011;9760;50.944;5.304;2022-10-22T13:00:24;9.23;;;1.30;;
19251;SDS011;9760;50.944;5.304;2022-10-22T13:02:52;4.60;;;1.20;;
19251;SDS011;9760;50.944;5.304;2022-10-22T13:07:50;9.83;;;1.37;;
19251;SDS011;9760;50.944;5.304;2022-10-22T13:10:37;9.13;;;1.47;;
19251;SDS011;9760;50.944;5.304;2022-10-22T13:13:04;6.17;;;1.43;;
19251;SDS011;9760;50.944;5.304;2022-10-22T13:18:40;7.00;;;1.37;;
19251;SDS011;9760;50.944;5.304;2022-10-22T13:23:17;4.67;;;1.10;;
19251;SDS011;9760;50.944;5.304;2022-10-22T13:25:54;8.70;;;1.20;;
19251;SDS011;9760;50.944;5.304;2022-10-22T13:28:21;8.80;;;1.70;;
19251;SDS011;9760;50.944;5.304;2022-10-22T13:30:59;4.10;;;0.80;;
19251;SDS011;9760;50.944;5.304;2022-10-22T13:33:28;5.07;;;1.10;;
19251;SDS011;9760;50.944;5.304;2022-10-22T13:36:05;4.50;;;1.03;;
19251;SDS011;9760;50.944;5.304;2022-10-22T13:38:32;2.77;;;0.80;;
19251;SDS011;9760;50.944;5.304;2022-10-22T13:40:58;5.87;;;0.87;;
19251;SDS011;9760;50.944;5.304;2022-10-22T13:43:24;4.80;;;1.10;;
19251;SDS011;9760;50.944;5.304;2022-10-22T13:45:53;6.57;;;1.20;;
19251;SDS011;9760;50.944;5.304;2022-10-22T13:48:22;8.57;;;1.60;;
19251;SDS011;9760;50.944;5.304;2022-10-22T13:50:49;7.43;;;1.97;;
19251;SDS011;9760;50.944;5.304;2022-10-22T13:53:17;11.57;;;1.33;;
19251;SDS011;9760;50.944;5.304;2022-10-22T13:55:45;7.73;;;1.40;;
19251;SDS011;9760;50.944;5.304;2022-10-22T14:04:21;7.37;;;1.37;;
19251;SDS011;9760;50.944;5.304;2022-10-22T14:06:47;6.33;;;1.57;;
19251;SDS011;9760;50.944;5.304;2022-10-22T14:09:13;11.60;;;1.50;;
19251;SDS011;9760;50.944;5.304;2022-10-22T14:11:39;8.03;;;1.40;;
19251;SDS011;9760;50.944;5.304;2022-10-22T14:14:05;13.37;;;1.30;;
19251;SDS011;9760;50.944;5.304;2022-10-22T14:16:33;9.83;;;1.03;;
19251;SDS011;9760;50.944;5.304;2022-10-22T14:18:59;5.93;;;1.13;;
19251;SDS011;9760;50.944;5.304;2022-10-22T14:21:26;5.60;;;1.17;;
19251;SDS011;9760;50.944;5.304;2022-10-22T14:24:00;8.20;;;1.23;;
19251;SDS011;9760;50.944;5.304;2022-10-22T14:26:29;5.80;;;1.20;;
19251;SDS011;9760;50.944;5.304;2022-10-22T14:28:57;6.17;;;1.30;;
19251;SDS011;9760;50.944;5.304;2022-10-22T14:31:26;4.97;;;1.27;;
19251;SDS011;9760;50.944;5.304;2022-10-22T14:33:52;7.20;;;0.97;;
19251;SDS011;9760;50.944;5.304;2022-10-22T14:36:18;8.80;;;1.80;;
19251;SDS011;9760;50.944;5.304;2022-10-22T14:38:45;7.40;;;1.40;;
19251;SDS011;9760;50.944;5.304;2022-10-22T14:41:20;6.00;;;1.20;;
19251;SDS011;9760;50.944;5.304;2022-10-22T14:43:50;3.20;;;1.00;;
19251;SDS011;9760;50.944;5.304;2022-10-22T14:46:16;7.20;;;0.90;;
19251;SDS011;9760;50.944;5.304;2022-10-22T14:48:42;6.20;;;1.10;;
19251;SDS011;9760;50.944;5.304;2022-10-22T14:51:12;7.57;;;1.03;;
19251;SDS011;9760;50.944;5.304;2022-10-22T14:53:38;9.97;;;1.10;;
19251;SDS011;9760;50.944;5.304;2022-10-22T14:56:04;7.67;;;1.00;;
19251;SDS011;9760;50.944;5.304;2022-10-22T14:58:30;6.23;;;1.33;;
19251;SDS011;9760;50.944;5.304;2022-10-22T15:00:56;3.73;;;1.20;;
19251;SDS011;9760;50.944;5.304;2022-10-22T15:03:21;7.67;;;1.40;;
19251;SDS011;9760;50.944;5.304;2022-10-22T15:05:49;10.37;;;1.97;;
19251;SDS011;9760;50.944;5.304;2022-10-22T15:08:17;6.93;;;1.83;;
19251;SDS011;9760;50.944;5.304;2022-10-22T15:10:44;9.20;;;1.53;;
19251;SDS011;9760;50.944;5.304;2022-10-22T15:13:09;7.60;;;1.57;;
19251;SDS011;9760;50.944;5.304;2022-10-22T15:15:35;3.07;;;1.20;;
19251;SDS011;9760;50.944;5.304;2022-10-22T15:18:03;5.70;;;1.23;;
19251;SDS011;9760;50.944;5.304;2022-10-22T15:20:29;6.77;;;1.40;;
19251;SDS011;9760;50.944;5.304;2022-10-22T15:22:55;5.37;;;2.00;;
19251;SDS011;9760;50.944;5.304;2022-10-22T15:25:21;6.60;;;1.70;;
19251;SDS011;9760;50.944;5.304;2022-10-22T15:27:47;5.67;;;1.73;;
19251;SDS011;9760;50.944;5.304;2022-10-22T15:30:12;11.90;;;1.50;;
19251;SDS011;9760;50.944;5.304;2022-10-22T15:32:38;5.37;;;1.50;;
19251;SDS011;9760;50.944;5.304;2022-10-22T15:35:04;9.37;;;2.03;;
19251;SDS011;9760;50.944;5.304;2022-10-22T15:37:31;10.73;;;1.53;;
19251;SDS011;9760;50.944;5.304;2022-10-22T15:39:57;10.53;;;1.87;;
19251;SDS011;9760;50.944;5.304;2022-10-22T15:42:22;4.33;;;1.10;;
19251;SDS011;9760;50.944;5.304;2022-10-22T15:44:48;5.23;;;2.13;;
19251;SDS011;9760;50.944;5.304;2022-10-22T15:47:16;5.27;;;1.60;;
19251;SDS011;9760;50.944;5.304;2022-10-22T15:49:42;8.73;;;2.67;;
19251;SDS011;9760;50.944;5.304;2022-10-22T15:52:08;14.47;;;2.83;;
19251;SDS011;9760;50.944;5.304;2022-10-22T15:54:33;20.43;;;6.63;;
19251;SDS011;9760;50.944;5.304;2022-10-22T15:56:59;16.73;;;5.43;;
19251;SDS011;9760;50.944;5.304;2022-10-22T15:59:27;25.27;;;8.10;;
19251;SDS011;9760;50.944;5.304;2022-10-22T16:01:53;15.67;;;6.30;;
19251;SDS011;9760;50.944;5.304;2022-10-22T16:04:18;13.87;;;4.67;;
19251;SDS011;9760;50.944;5.304;2022-10-22T16:06:45;12.53;;;4.50;;
19251;SDS011;9760;50.944;5.304;2022-10-22T16:09:13;9.17;;;1.60;;
19251;SDS011;9760;50.944;5.304;2022-10-22T16:11:41;11.60;;;1.77;;
19251;SDS011;9760;50.944;5.304;2022-10-22T16:14:08;6.50;;;1.63;;
19251;SDS011;9760;50.944;5.304;2022-10-22T16:16:36;5.97;;;1.93;;
19251;SDS011;9760;50.944;5.304;2022-10-22T16:19:03;9.37;;;3.30;;
19251;SDS011;9760;50.944;5.304;2022-10-22T16:21:29;11.80;;;2.93;;
19251;SDS011;9760;50.944;5.304;2022-10-22T16:23:55;9.10;;;2.07;;
19251;SDS011;9760;50.944;5.304;2022-10-22T16:26:20;10.57;;;2.30;;
19251;SDS011;9760;50.944;5.304;2022-10-22T16:28:46;8.40;;;2.00;;
19251;SDS011;9760;50.944;5.304;2022-10-22T16:31:13;7.47;;;1.83;;
19251;SDS011;9760;50.944;5.304;2022-10-22T16:33:40;6.77;;;1.70;;
19251;SDS011;9760;50.944;5.304;2022-10-22T16:36:10;7.33;;;2.00;;
19251;SDS011;9760;50.944;5.304;2022-10-22T16:38:38;20.17;;;8.13;;
19251;SDS011;9760;50.944;5.304;2022-10-22T16:41:07;11.87;;;3.00;;
19251;SDS011;9760;50.944;5.304;2022-10-22T16:43:38;7.80;;;2.10;;
19251;SDS011;9760;50.944;5.304;2022-10-22T16:46:04;8.67;;;2.23;;
19251;SDS011;9760;50.944;5.304;2022-10-22T16:48:30;5.17;;;1.80;;
19251;SDS011;9760;50.944;5.304;2022-10-22T16:50:56;11.37;;;2.20;;
19251;SDS011;9760;50.944;5.304;2022-10-22T16:53:23;9.47;;;2.23;;